Wetterdaten: Woche 22.10.01 - 28.10.01 (KW43)
Datum Zeit Temperatur Luftfeuchte Luftdruck Regenmenge Wind Richtung Taupunkt Windchill
22.10.2001 00:00 10.1 C 92 % 1005.4 hPa 1.3 l/m 4.5 km/h (1 Bft) O-SO 8.9 C 9.8 C
22.10.2001 01:00 10.1 C 91 % 1006.1 hPa 0.0 l/m 1.1 km/h (1 Bft) O 8.7 C 10.1 C
22.10.2001 02:00 10.0 C 90 % 1006.4 hPa 0.0 l/m 1.8 km/h (1 Bft) O-SO 8.5 C 9.9 C
22.10.2001 03:00 10.1 C 90 % 1006.4 hPa 0.3 l/m 2.1 km/h (1 Bft) O 8.5 C 10.0 C
22.10.2001 04:00 10.3 C 90 % 1006.4 hPa 0.3 l/m 1.0 km/h (0 Bft) O-SO 8.7 C 10.3 C
22.10.2001 05:00 10.2 C 90 % 1006.4 hPa 0.0 l/m 0.7 km/h (0 Bft) O-SO 8.6 C 10.2 C
22.10.2001 06:00 10.0 C 91 % 1007.1 hPa 0.0 l/m 1.6 km/h (1 Bft) O 8.5 C 9.9 C
22.10.2001 07:00 9.5 C 90 % 1007.5 hPa 0.0 l/m 4.0 km/h (1 Bft) O-SO 7.9 C 9.2 C
22.10.2001 08:00 9.5 C 91 % 1007.9 hPa 0.0 l/m 3.0 km/h (1 Bft) O-SO 8.1 C 9.3 C
22.10.2001 09:00 10.5 C 89 % 1008.5 hPa 0.0 l/m 5.0 km/h (1 Bft) O-SO 8.7 C 10.5 C
22.10.2001 10:00 11.8 C 84 % 1009.2 hPa 0.0 l/m 3.9 km/h (1 Bft) O-SO 9.2 C 11.8 C
22.10.2001 11:00 13.1 C 79 % 1009.6 hPa 0.0 l/m 1.5 km/h (1 Bft) O 9.6 C 13.1 C
22.10.2001 12:00 14.3 C 70 % 1009.5 hPa 0.0 l/m 3.2 km/h (1 Bft) W 9.0 C 14.3 C
22.10.2001 13:00 15.5 C 60 % 1008.5 hPa 0.0 l/m 10.6 km/h (2 Bft) W-NW 7.7 C 15.5 C
22.10.2001 14:00 16.1 C 58 % 1008.5 hPa 0.0 l/m 2.7 km/h (1 Bft) W-NW 7.8 C 16.1 C
22.10.2001 15:00 17.2 C 53 % 1007.7 hPa 0.0 l/m 10.5 km/h (2 Bft) W-NW 7.5 C 17.2 C
22.10.2001 16:00 17.2 C 54 % 1008.4 hPa 0.0 l/m 6.1 km/h (2 Bft) W-NW 7.8 C 17.2 C
22.10.2001 17:00 15.9 C 59 % 1008.5 hPa 0.0 l/m 0.3 km/h (0 Bft) W-SW 7.9 C 15.9 C
22.10.2001 18:00 13.3 C 72 % 1008.5 hPa 0.0 l/m 2.7 km/h (1 Bft) O-SO 8.4 C 13.3 C
22.10.2001 19:00 11.1 C 81 % 1008.7 hPa 0.0 l/m 4.6 km/h (1 Bft) O-SO 8.0 C 11.1 C
22.10.2001 20:00 9.7 C 86 % 1009.5 hPa 0.0 l/m 0.6 km/h (0 Bft) O 7.4 C 9.7 C
22.10.2001 21:00 8.6 C 88 % 1009.6 hPa 0.0 l/m 0.4 km/h (0 Bft) O 6.7 C 8.6 C
22.10.2001 22:00 7.9 C 90 % 1009.6 hPa 0.0 l/m 0.8 km/h (0 Bft) O 6.3 C 7.9 C
22.10.2001 23:00 7.3 C 90 % 1010.5 hPa 0.0 l/m 0.6 km/h (0 Bft) O 5.8 C 7.2 C
23.10.2001 00:00 6.6 C 91 % 1010.1 hPa 0.0 l/m 0.1 km/h (0 Bft) O 5.2 C 6.6 C
23.10.2001 01:00 6.2 C 91 % 1010.5 hPa 0.0 l/m 0.0 km/h (0 Bft) N 4.9 C 6.2 C
23.10.2001 02:00 6.4 C 92 % 1010.6 hPa 0.0 l/m 0.2 km/h (0 Bft) O 5.3 C 6.4 C
23.10.2001 03:00 7.4 C 93 % 1010.6 hPa 0.0 l/m 0.0 km/h (0 Bft) N 6.3 C 7.4 C
23.10.2001 04:00 7.5 C 93 % 1010.1 hPa 0.0 l/m 0.0 km/h (0 Bft) N 6.5 C 7.5 C
23.10.2001 05:00 7.6 C 94 % 1009.7 hPa 0.3 l/m 0.0 km/h (0 Bft) N 6.7 C 7.6 C
23.10.2001 06:00 7.7 C 93 % 1010.0 hPa 0.0 l/m 0.6 km/h (0 Bft) O-SO 6.7 C 7.7 C
23.10.2001 07:00 7.8 C 94 % 1009.6 hPa 0.0 l/m 0.0 km/h (0 Bft) N 6.9 C 7.8 C
23.10.2001 08:00 8.0 C 94 % 1009.6 hPa 0.0 l/m 0.0 km/h (0 Bft) N 7.0 C 8.0 C
23.10.2001 09:00 8.2 C 92 % 1010.2 hPa 0.0 l/m 0.0 km/h (0 Bft) N 6.9 C 8.2 C
23.10.2001 10:00 8.7 C 89 % 1009.7 hPa 0.0 l/m 0.2 km/h (0 Bft) W 7.1 C 8.7 C
23.10.2001 11:00 10.3 C 82 % 1009.6 hPa 0.0 l/m 0.4 km/h (0 Bft) W-NW 7.4 C 10.3 C
23.10.2001 12:00 11.7 C 77 % 1010.2 hPa 0.0 l/m 0.9 km/h (0 Bft) W 7.7 C 11.7 C
23.10.2001 13:00 12.3 C 75 % 1009.6 hPa 0.0 l/m 1.4 km/h (1 Bft) W 7.9 C 12.3 C
23.10.2001 14:00 12.5 C 75 % 1009.6 hPa 0.0 l/m 0.1 km/h (0 Bft) N 8.2 C 12.5 C
23.10.2001 15:00 12.6 C 76 % 1010.1 hPa 0.0 l/m 0.0 km/h (0 Bft) N 8.4 C 12.6 C
23.10.2001 16:00 12.6 C 77 % 1010.6 hPa 0.0 l/m 0.0 km/h (0 Bft) N 8.6 C 12.6 C
23.10.2001 17:00 12.0 C 82 % 1010.6 hPa 0.0 l/m 0.0 km/h (0 Bft) N 8.9 C 12.0 C
23.10.2001 18:00 11.6 C 87 % 1011.2 hPa 0.3 l/m 0.8 km/h (0 Bft) W-NW 9.5 C 11.6 C
23.10.2001 19:00 11.3 C 88 % 1012.0 hPa 1.3 l/m 1.0 km/h (0 Bft) W-NW 9.3 C 11.3 C
23.10.2001 20:00 11.1 C 90 % 1012.8 hPa 0.9 l/m 3.1 km/h (1 Bft) O-SO 9.4 C 11.1 C
23.10.2001 21:00 11.0 C 90 % 1014.3 hPa 0.6 l/m 3.8 km/h (1 Bft) O-SO 9.5 C 11.0 C
23.10.2001 22:00 11.1 C 91 % 1015.2 hPa 1.6 l/m 1.9 km/h (1 Bft) O-SO 9.6 C 11.1 C
23.10.2001 23:00 11.3 C 90 % 1015.3 hPa 0.0 l/m 9.5 km/h (2 Bft) W-NW 9.7 C 11.3 C
24.10.2001 00:00 11.3 C 88 % 1015.8 hPa 0.3 l/m 9.2 km/h (2 Bft) W-NW 9.4 C 11.3 C
24.10.2001 01:00 11.1 C 89 % 1016.3 hPa 0.0 l/m 2.9 km/h (1 Bft) W-NW 9.3 C 11.1 C
24.10.2001 02:00 10.6 C 90 % 1016.8 hPa 0.0 l/m 0.0 km/h (0 Bft) N 9.0 C 10.6 C
24.10.2001 03:00 10.7 C 91 % 1017.4 hPa 0.6 l/m 0.4 km/h (0 Bft) O-SO 9.2 C 10.7 C
24.10.2001 04:00 10.8 C 91 % 1017.4 hPa 0.9 l/m 2.4 km/h (1 Bft) O-SO 9.4 C 10.8 C
24.10.2001 05:00 10.8 C 91 % 1017.4 hPa 0.0 l/m 1.5 km/h (1 Bft) O-SO 9.4 C 10.8 C
24.10.2001 06:00 10.8 C 91 % 1018.1 hPa 0.0 l/m 1.2 km/h (1 Bft) O-SO 9.5 C 10.8 C
24.10.2001 07:00 10.9 C 91 % 1018.4 hPa 0.6 l/m 0.9 km/h (0 Bft) O-SO 9.4 C 10.9 C
24.10.2001 08:00 11.0 C 91 % 1018.4 hPa 0.3 l/m 0.9 km/h (0 Bft) O 9.6 C 11.0 C
24.10.2001 09:00 11.1 C 91 % 1018.9 hPa 0.0 l/m 0.1 km/h (0 Bft) N 9.7 C 11.1 C
24.10.2001 10:00 11.6 C 89 % 1019.5 hPa 0.0 l/m 1.1 km/h (0 Bft) O 9.9 C 11.6 C
24.10.2001 11:00 12.3 C 85 % 1019.5 hPa 0.0 l/m 2.8 km/h (1 Bft) W 9.8 C 12.3 C
24.10.2001 12:00 13.2 C 82 % 1019.5 hPa 0.0 l/m 0.9 km/h (0 Bft) O-SO 10.2 C 13.2 C
24.10.2001 13:00 13.6 C 75 % 1019.5 hPa 0.0 l/m 2.7 km/h (1 Bft) W-NW 9.2 C 13.6 C
24.10.2001 14:00 13.3 C 70 % 1019.5 hPa 0.0 l/m 12.9 km/h (3 Bft) W-NW 8.0 C 13.3 C
24.10.2001 15:00 12.5 C 76 % 1019.5 hPa 0.0 l/m 1.4 km/h (1 Bft) O-SO 8.4 C 12.5 C
24.10.2001 16:00 12.8 C 76 % 1019.5 hPa 0.0 l/m 4.4 km/h (1 Bft) O-SO 8.7 C 12.8 C
24.10.2001 17:00 12.6 C 77 % 1019.5 hPa 0.0 l/m 2.9 km/h (1 Bft) O-SO 8.8 C 12.6 C
24.10.2001 18:00 11.9 C 83 % 1019.5 hPa 0.3 l/m 1.5 km/h (1 Bft) O-SO 9.1 C 11.9 C
24.10.2001 19:00 11.2 C 86 % 1019.5 hPa 0.3 l/m 1.0 km/h (0 Bft) O-SO 9.0 C 11.2 C
24.10.2001 20:00 10.8 C 88 % 1019.5 hPa 0.0 l/m 0.7 km/h (0 Bft) O-SO 9.0 C 10.8 C
24.10.2001 21:00 10.3 C 89 % 1019.5 hPa 0.0 l/m 3.6 km/h (1 Bft) O-SO 8.5 C 10.3 C
24.10.2001 22:00 10.5 C 90 % 1019.5 hPa 0.3 l/m 2.1 km/h (1 Bft) O-SO 9.0 C 10.5 C
24.10.2001 23:00 10.6 C 91 % 1019.5 hPa 1.3 l/m 0.1 km/h (0 Bft) N 9.2 C 10.6 C
25.10.2001 00:00 10.4 C 91 % 1019.5 hPa 0.6 l/m 0.9 km/h (0 Bft) O-SO 9.0 C 10.4 C
25.10.2001 01:00 10.1 C 91 % 1019.5 hPa 0.0 l/m 1.2 km/h (1 Bft) O-SO 8.7 C 10.1 C
25.10.2001 02:00 9.4 C 91 % 1019.5 hPa 0.0 l/m 0.2 km/h (0 Bft) SO 7.9 C 9.4 C
25.10.2001 03:00 9.9 C 91 % 1019.5 hPa 0.3 l/m 1.0 km/h (0 Bft) SO 8.5 C 9.8 C
25.10.2001 04:00 9.9 C 91 % 1019.5 hPa 3.4 l/m 0.0 km/h (0 Bft) N 8.5 C 9.9 C
25.10.2001 05:00 9.8 C 91 % 1019.3 hPa 1.3 l/m 1.7 km/h (1 Bft) O-SO 8.4 C 9.7 C
25.10.2001 06:00 9.9 C 91 % 1019.5 hPa 2.5 l/m 0.7 km/h (0 Bft) W 8.5 C 9.8 C
25.10.2001 07:00 9.4 C 91 % 1019.6 hPa 2.5 l/m 3.0 km/h (1 Bft) W 8.0 C 9.1 C
25.10.2001 08:00 9.3 C 91 % 1020.5 hPa 0.9 l/m 1.6 km/h (1 Bft) O-SO 8.0 C 9.2 C
25.10.2001 09:00 10.1 C 90 % 1020.5 hPa 0.3 l/m 5.3 km/h (1 Bft) O-SO 8.6 C 9.9 C
25.10.2001 10:00 11.0 C 89 % 1021.4 hPa 0.0 l/m 4.2 km/h (1 Bft) SO 9.3 C 11.0 C
25.10.2001 11:00 11.5 C 89 % 1021.5 hPa 0.6 l/m 0.2 km/h (0 Bft) S 9.7 C 11.5 C
25.10.2001 12:00 11.5 C 89 % 1020.8 hPa 2.2 l/m 0.5 km/h (0 Bft) SO 9.7 C 11.5 C
25.10.2001 13:00 11.7 C 89 % 1020.5 hPa 0.3 l/m 0.1 km/h (0 Bft) N 10.0 C 11.7 C
25.10.2001 14:00 11.9 C 89 % 1020.5 hPa 0.9 l/m 0.3 km/h (0 Bft) SW 10.1 C 11.9 C
25.10.2001 15:00 12.7 C 84 % 1020.5 hPa 0.0 l/m 7.5 km/h (2 Bft) W-NW 10.1 C 12.7 C
25.10.2001 16:00 12.3 C 85 % 1020.5 hPa 0.6 l/m 2.6 km/h (1 Bft) O-SO 9.9 C 12.3 C
25.10.2001 17:00 11.9 C 88 % 1020.1 hPa 0.0 l/m 4.0 km/h (1 Bft) O-SO 10.0 C 11.9 C
25.10.2001 18:00 11.5 C 90 % 1020.2 hPa 0.0 l/m 0.0 km/h (0 Bft) N 9.9 C 11.5 C
25.10.2001 19:00 11.3 C 90 % 1020.5 hPa 0.0 l/m 0.2 km/h (0 Bft) O-SO 9.7 C 11.3 C
25.10.2001 20:00 10.9 C 90 % 1020.5 hPa 0.3 l/m 2.2 km/h (1 Bft) O-SO 9.3 C 10.9 C
25.10.2001 21:00 9.8 C 90 % 1020.0 hPa 0.0 l/m 1.9 km/h (1 Bft) O-SO 8.2 C 9.8 C
25.10.2001 22:00 8.8 C 91 % 1020.5 hPa 0.0 l/m 2.2 km/h (1 Bft) O-SO 7.4 C 8.6 C
25.10.2001 23:00 8.9 C 91 % 1020.5 hPa 0.0 l/m 1.7 km/h (1 Bft) O-SO 7.6 C 8.7 C
26.10.2001 00:00 9.7 C 93 % 1019.5 hPa 0.0 l/m 0.0 km/h (0 Bft) N 8.6 C 9.7 C
26.10.2001 01:00 9.9 C 94 % 1019.5 hPa 0.0 l/m 0.0 km/h (0 Bft) N 8.9 C 9.9 C
26.10.2001 02:00 9.8 C 93 % 1019.2 hPa 0.0 l/m 3.7 km/h (1 Bft) O-SO 8.7 C 9.4 C
26.10.2001 03:00 9.4 C 91 % 1018.4 hPa 0.0 l/m 3.0 km/h (1 Bft) O-SO 8.1 C 9.1 C
26.10.2001 04:00 9.5 C 92 % 1018.4 hPa 0.0 l/m 0.2 km/h (0 Bft) O-SO 8.2 C 9.5 C
26.10.2001 05:00 9.3 C 93 % 1017.5 hPa 0.0 l/m 0.0 km/h (0 Bft) N 8.2 C 9.3 C
26.10.2001 06:00 9.5 C 92 % 1017.4 hPa 0.0 l/m 0.0 km/h (0 Bft) N 8.2 C 9.5 C
26.10.2001 07:00 9.4 C 92 % 1017.4 hPa 0.0 l/m 0.0 km/h (0 Bft) N 8.2 C 9.4 C
26.10.2001 08:00 9.2 C 92 % 1017.4 hPa 0.0 l/m 0.0 km/h (0 Bft) N 8.0 C 9.2 C
26.10.2001 09:00 9.1 C 91 % 1017.4 hPa 0.0 l/m 1.1 km/h (1 Bft) O-SO 7.7 C 9.0 C
26.10.2001 10:00 9.3 C 90 % 1017.4 hPa 0.0 l/m 0.7 km/h (0 Bft) O 7.8 C 9.3 C
26.10.2001 11:00 9.8 C 87 % 1017.4 hPa 0.0 l/m 1.1 km/h (0 Bft) SO 7.7 C 9.8 C
26.10.2001 12:00 10.7 C 83 % 1017.3 hPa 0.0 l/m 0.1 km/h (0 Bft) O 8.0 C 10.7 C
26.10.2001 13:00 11.4 C 78 % 1016.3 hPa 0.0 l/m 1.7 km/h (1 Bft) S-SO 7.6 C 11.4 C
26.10.2001 14:00 11.3 C 75 % 1015.8 hPa 0.0 l/m 2.6 km/h (1 Bft) W 7.1 C 11.3 C
26.10.2001 15:00 11.4 C 74 % 1015.3 hPa 0.0 l/m 2.5 km/h (1 Bft) O-SO 6.9 C 11.4 C
26.10.2001 16:00 12.0 C 71 % 1015.3 hPa 0.0 l/m 0.9 km/h (0 Bft) O-SO 6.8 C 12.0 C
26.10.2001 17:00 10.5 C 76 % 1015.2 hPa 0.0 l/m 0.4 km/h (0 Bft) O-SO 6.5 C 10.5 C
26.10.2001 18:00 8.6 C 84 % 1015.3 hPa 0.0 l/m 3.0 km/h (1 Bft) O-SO 6.1 C 8.4 C
26.10.2001 19:00 8.5 C 88 % 1015.3 hPa 0.0 l/m 3.0 km/h (1 Bft) O-SO 6.6 C 8.2 C
26.10.2001 20:00 9.0 C 89 % 1015.3 hPa 0.0 l/m 0.0 km/h (0 Bft) N 7.3 C 9.0 C
26.10.2001 21:00 9.1 C 88 % 1015.3 hPa 0.0 l/m 0.0 km/h (0 Bft) N 7.2 C 9.1 C
26.10.2001 22:00 9.1 C 88 % 1015.6 hPa 0.0 l/m 0.0 km/h (0 Bft) N 7.2 C 9.1 C
26.10.2001 23:00 9.1 C 87 % 1016.3 hPa 0.0 l/m 0.0 km/h (0 Bft) N 7.1 C 9.1 C
27.10.2001 00:00 9.0 C 87 % 1016.3 hPa 0.0 l/m 0.0 km/h (0 Bft) N 7.0 C 9.0 C
27.10.2001 01:00 8.8 C 88 % 1016.3 hPa 0.0 l/m 0.2 km/h (0 Bft) SW 7.0 C 8.8 C
27.10.2001 02:00 8.7 C 88 % 1016.3 hPa 0.0 l/m 2.2 km/h (1 Bft) O 6.9 C 8.5 C
27.10.2001 03:00 8.7 C 89 % 1016.3 hPa 0.0 l/m 0.8 km/h (0 Bft) O-SO 7.0 C 8.6 C
27.10.2001 04:00 8.5 C 88 % 1016.1 hPa 0.0 l/m 1.1 km/h (0 Bft) O-SO 6.7 C 8.5 C
27.10.2001 05:00 8.5 C 88 % 1015.9 hPa 0.0 l/m 0.8 km/h (0 Bft) N 6.7 C 8.5 C
27.10.2001 06:00 8.5 C 89 % 1016.3 hPa 0.0 l/m 0.2 km/h (0 Bft) S-SW 6.7 C 8.5 C
27.10.2001 07:00 8.4 C 88 % 1016.3 hPa 0.0 l/m 1.9 km/h (1 Bft) O-SO 6.5 C 8.2 C
27.10.2001 08:00 8.4 C 88 % 1016.3 hPa 0.0 l/m 0.5 km/h (0 Bft) O-SO 6.5 C 8.4 C
27.10.2001 09:00 8.4 C 87 % 1017.0 hPa 0.0 l/m 0.2 km/h (0 Bft) O 6.4 C 8.4 C
27.10.2001 10:00 8.8 C 85 % 1017.4 hPa 0.0 l/m 0.3 km/h (0 Bft) O-SO 6.5 C 8.8 C
27.10.2001 11:00 9.9 C 81 % 1017.4 hPa 0.0 l/m 0.7 km/h (0 Bft) O-SO 6.9 C 9.9 C
27.10.2001 12:00 11.4 C 76 % 1017.4 hPa 0.0 l/m 0.7 km/h (0 Bft) O-NO 7.3 C 11.4 C
27.10.2001 13:00 11.5 C 76 % 1016.9 hPa 0.0 l/m 1.3 km/h (1 Bft) W-NW 7.5 C 11.5 C
27.10.2001 14:00 12.8 C 72 % 1016.3 hPa 0.0 l/m 0.6 km/h (0 Bft) W-NW 7.9 C 12.8 C
27.10.2001 15:00 13.9 C 70 % 1016.3 hPa 0.0 l/m 0.7 km/h (0 Bft) W-NW 8.5 C 13.9 C
27.10.2001 16:00 14.3 C 70 % 1016.3 hPa 0.0 l/m 0.7 km/h (0 Bft) SO 9.0 C 14.3 C
27.10.2001 17:00 13.8 C 74 % 1016.3 hPa 0.0 l/m 4.6 km/h (1 Bft) O-SO 9.4 C 13.8 C
27.10.2001 18:00 12.4 C 79 % 1016.3 hPa 0.0 l/m 1.8 km/h (1 Bft) O-SO 8.9 C 12.4 C
27.10.2001 19:00 11.3 C 85 % 1016.8 hPa 0.0 l/m 0.1 km/h (0 Bft) O-SO 8.8 C 11.3 C
27.10.2001 20:00 10.1 C 87 % 1017.4 hPa 0.0 l/m 0.2 km/h (0 Bft) O-SO 8.1 C 10.1 C
27.10.2001 21:00 9.2 C 89 % 1017.4 hPa 0.0 l/m 0.0 km/h (0 Bft) N 7.4 C 9.2 C
27.10.2001 22:00 8.5 C 90 % 1018.4 hPa 0.0 l/m 1.2 km/h (1 Bft) O-SO 7.0 C 8.5 C
27.10.2001 23:00 7.8 C 91 % 1018.4 hPa 0.0 l/m 0.6 km/h (0 Bft) O 6.4 C 7.8 C
28.10.2001 00:00 8.5 C 93 % 1018.4 hPa 0.0 l/m 1.0 km/h (0 Bft) O 7.3 C 8.4 C
28.10.2001 01:00 8.7 C 96 % 1018.4 hPa 0.0 l/m 1.3 km/h (1 Bft) O 8.1 C 8.7 C
28.10.2001 02:00 8.6 C 96 % 1018.4 hPa 0.0 l/m 1.0 km/h (0 Bft) O-SO 8.0 C 8.6 C
28.10.2001 03:00 8.6 C 96 % 1018.4 hPa 0.0 l/m 0.7 km/h (0 Bft) O-SO 8.0 C 8.6 C
28.10.2001 04:00 8.1 C 97 % 1018.5 hPa 0.0 l/m 3.1 km/h (1 Bft) O-SO 7.7 C 7.9 C
28.10.2001 05:00 8.3 C 96 % 1019.3 hPa 0.0 l/m 3.5 km/h (1 Bft) O-SO 7.7 C 8.0 C
28.10.2001 06:00 8.4 C 96 % 1019.0 hPa 0.0 l/m 1.3 km/h (1 Bft) O-SO 7.8 C 8.3 C
28.10.2001 07:00 8.7 C 96 % 1019.5 hPa 0.0 l/m 0.0 km/h (0 Bft) N 8.1 C 8.7 C
28.10.2001 08:00 9.4 C 94 % 1019.9 hPa 0.0 l/m 0.0 km/h (0 Bft) N 8.5 C 9.4 C
28.10.2001 09:00 10.3 C 88 % 1020.4 hPa 0.0 l/m 0.9 km/h (0 Bft) O-SO 8.4 C 10.3 C
28.10.2001 10:00 12.2 C 78 % 1020.5 hPa 0.0 l/m 6.4 km/h (2 Bft) SO 8.6 C 12.2 C
28.10.2001 11:00 13.9 C 70 % 1020.3 hPa 0.0 l/m 10.6 km/h (2 Bft) O-SO 8.4 C 13.9 C
28.10.2001 12:00 15.4 C 64 % 1019.5 hPa 0.0 l/m 9.2 km/h (2 Bft) O-SO 8.7 C 15.4 C
28.10.2001 13:00 16.4 C 62 % 1019.5 hPa 0.0 l/m 4.1 km/h (1 Bft) SO 9.0 C 16.4 C
28.10.2001 14:00 16.7 C 62 % 1018.6 hPa 0.0 l/m 5.2 km/h (1 Bft) O-SO 9.4 C 16.7 C
28.10.2001 15:00 17.5 C 60 % 1018.5 hPa 0.0 l/m 3.1 km/h (1 Bft) O-SO 9.6 C 17.5 C
28.10.2001 16:00 15.5 C 70 % 1018.4 hPa 0.0 l/m 3.1 km/h (1 Bft) O 9.9 C 15.5 C
28.10.2001 17:00 13.7 C 78 % 1018.8 hPa 0.0 l/m 5.8 km/h (2 Bft) O 9.8 C 13.7 C
28.10.2001 18:00 12.2 C 83 % 1019.5 hPa 0.0 l/m 6.1 km/h (2 Bft) O-SO 9.5 C 12.2 C
28.10.2001 19:00 11.5 C 87 % 1020.3 hPa 0.0 l/m 4.7 km/h (1 Bft) O-SO 9.4 C 11.5 C
28.10.2001 20:00 10.8 C 90 % 1020.5 hPa 0.0 l/m 3.6 km/h (1 Bft) O-SO 9.2 C 10.8 C
28.10.2001 21:00 10.0 C 91 % 1020.5 hPa 0.0 l/m 3.7 km/h (1 Bft) O-SO 8.7 C 9.9 C
28.10.2001 22:00 9.8 C 92 % 1020.6 hPa 0.0 l/m 0.8 km/h (0 Bft) O-SO 8.6 C 9.8 C
28.10.2001 23:00 9.4 C 92 % 1021.5 hPa 0.0 l/m 2.0 km/h (1 Bft) O-SO 8.2 C 9.2 C
Min-Datum _ 23.10.01 22.10.01 22.10.01 - 22.10.01 - 23.10.01 23.10.01
_ Min-Zeit 02:05 15:07 00:01 - 00:28 - 02:05 02:05
Minimum _ 5.7 C 50 % 1005.4 hPa - 0.0 km/h (0 Bft) - 4.3 C 5.7 C
Max-Datum _ 28.10.01 28.10.01 25.10.01 25.10.01 24.10.01 - 24.10.01 28.10.01
_ Max-Zeit 15:14 01:03 11:00 03:00 14:48 - 12:36 15:14
Maximum _ 17.8 C 97 % 1021.5 hPa 3.4 l/m 33.9 km/h
W-NW (5 Bft)
- 10.6 C 17.8 C
Durchschnitt _ 10.7 C 85 % 1015.9 hPa #28.8 l/m 1.9 km/h (1 Bft) O-SO 8.2 C 10.6 C

Durchschnitt Minimum Temp.10.2 C
Durchschnitt Maximum Temp.11.1 C
© Kaiko 2001